createdAt,value
2022-12-08T00:01:27.609Z,7.17
2022-12-08T00:03:56.327Z,6.70
2022-12-08T00:06:43.705Z,7.10
2022-12-08T00:09:24.525Z,6.93
2022-12-08T00:11:57.030Z,5.70
2022-12-08T00:14:27.352Z,6.77
2022-12-08T00:16:55.594Z,7.10
2022-12-08T00:19:23.717Z,7.13
2022-12-08T00:21:52.236Z,6.87
2022-12-08T00:24:20.652Z,6.67
2022-12-08T00:26:49.026Z,7.30
2022-12-08T00:29:17.720Z,6.80
2022-12-08T00:31:47.422Z,7.37
2022-12-08T00:34:16.186Z,8.33
2022-12-08T00:36:44.141Z,7.03
2022-12-08T00:39:12.271Z,7.10
2022-12-08T00:41:57.651Z,6.80
2022-12-08T00:44:25.623Z,7.10
2022-12-08T00:46:55.111Z,7.70
2022-12-08T00:49:23.055Z,6.57
2022-12-08T00:51:51.099Z,6.77
2022-12-08T00:54:19.460Z,7.80
2022-12-08T00:56:47.690Z,6.97
2022-12-08T00:59:15.672Z,6.77
2022-12-08T01:01:45.208Z,6.77
2022-12-08T01:04:15.735Z,7.40
2022-12-08T01:06:44.116Z,7.20
2022-12-08T01:09:12.791Z,7.03
2022-12-08T01:11:40.709Z,6.57
2022-12-08T01:14:08.649Z,7.27
2022-12-08T01:16:37.222Z,6.37
2022-12-08T01:19:05.530Z,7.23
2022-12-08T01:21:34.873Z,6.67
2022-12-08T01:24:04.129Z,6.30
2022-12-08T01:26:32.125Z,6.87
2022-12-08T01:29:00.752Z,6.50
2022-12-08T01:31:30.675Z,7.00
2022-12-08T01:33:58.959Z,7.30
2022-12-08T01:36:27.943Z,6.57
2022-12-08T01:38:58.387Z,7.40
2022-12-08T01:41:27.393Z,7.27
2022-12-08T01:44:00.225Z,7.17
2022-12-08T01:46:28.971Z,6.80
2022-12-08T01:49:00.562Z,6.73
2022-12-08T01:51:29.003Z,7.27
2022-12-08T01:53:58.430Z,7.33
2022-12-08T01:56:29.670Z,6.50
2022-12-08T01:58:57.934Z,7.47
2022-12-08T02:01:26.065Z,7.10
2022-12-08T02:03:56.421Z,6.97
2022-12-08T02:06:24.436Z,7.57
2022-12-08T02:08:52.913Z,7.00
2022-12-08T02:11:22.706Z,7.27
2022-12-08T02:13:52.152Z,7.07
2022-12-08T02:16:28.425Z,7.00
2022-12-08T02:19:29.635Z,6.07
2022-12-08T02:21:57.683Z,7.30
2022-12-08T02:24:29.794Z,7.37
2022-12-08T02:27:22.091Z,6.80
2022-12-08T02:30:01.117Z,5.97
2022-12-08T02:32:56.175Z,5.50
2022-12-08T02:35:28.719Z,6.13
2022-12-08T02:37:59.367Z,5.63
2022-12-08T02:40:29.805Z,6.67
2022-12-08T02:42:59.204Z,5.80
2022-12-08T02:45:29.866Z,7.77
2022-12-08T02:47:59.736Z,6.17
2022-12-08T02:50:29.244Z,6.43
2022-12-08T02:52:57.301Z,5.67
2022-12-08T02:55:27.839Z,6.50
2022-12-08T02:58:07.211Z,5.90
2022-12-08T03:00:39.216Z,5.87
2022-12-08T03:03:10.663Z,5.87
2022-12-08T03:05:55.398Z,5.67
2022-12-08T03:08:26.073Z,5.67
2022-12-08T03:10:57.496Z,6.50
2022-12-08T03:13:27.609Z,6.23
2022-12-08T03:15:56.602Z,7.03
2022-12-08T03:18:26.517Z,6.17
2022-12-08T03:20:56.091Z,5.80
2022-12-08T03:23:24.650Z,6.03
2022-12-08T03:25:58.300Z,6.83
2022-12-08T03:28:26.615Z,6.30
2022-12-08T03:30:57.097Z,6.23
2022-12-08T03:33:26.914Z,6.67
2022-12-08T03:35:57.048Z,6.33
2022-12-08T03:38:24.997Z,6.00
2022-12-08T03:41:06.730Z,6.53
2022-12-08T03:43:34.638Z,5.87
2022-12-08T03:46:02.658Z,6.07
2022-12-08T03:48:30.792Z,6.27
2022-12-08T03:51:00.273Z,6.73
2022-12-08T03:53:28.233Z,6.20
2022-12-08T03:55:56.173Z,5.63
2022-12-08T03:58:24.361Z,6.57
2022-12-08T04:00:52.821Z,6.30
2022-12-08T04:03:20.848Z,6.30
2022-12-08T04:05:48.862Z,6.50
2022-12-08T04:08:18.309Z,6.63
2022-12-08T04:10:46.255Z,6.00
2022-12-08T04:13:14.218Z,6.70
2022-12-08T04:15:45.772Z,6.27
2022-12-08T04:18:13.867Z,6.13
2022-12-08T04:20:42.021Z,6.90
2022-12-08T04:23:12.086Z,6.37
2022-12-08T04:25:41.881Z,7.50
2022-12-08T04:28:09.855Z,6.73
2022-12-08T04:30:37.797Z,6.87
2022-12-08T04:33:05.789Z,5.73
2022-12-08T04:35:33.826Z,5.73
2022-12-08T04:38:01.762Z,5.90
2022-12-08T04:40:29.687Z,6.30
2022-12-08T04:42:59.632Z,6.20
2022-12-08T04:45:27.909Z,5.60
2022-12-08T04:47:56.145Z,5.27
2022-12-08T04:50:24.476Z,6.27
2022-12-08T04:52:52.473Z,6.23
2022-12-08T04:55:20.494Z,5.60
2022-12-08T04:57:48.464Z,6.17
2022-12-08T05:00:18.317Z,5.83
2022-12-08T05:02:46.426Z,6.80
2022-12-08T05:05:14.458Z,5.70
2022-12-08T05:07:42.601Z,7.20
2022-12-08T05:10:10.790Z,6.20
2022-12-08T05:12:38.738Z,6.33
2022-12-08T05:15:07.233Z,6.33
2022-12-08T05:17:36.685Z,6.07
2022-12-08T05:20:04.967Z,6.40
2022-12-08T05:22:33.200Z,6.70
2022-12-08T05:25:01.147Z,7.40
2022-12-08T05:27:29.131Z,6.47
2022-12-08T05:29:57.100Z,6.37
2022-12-08T05:32:25.068Z,5.97
2022-12-08T05:34:54.800Z,6.27
2022-12-08T05:37:22.725Z,7.40
2022-12-08T05:39:50.645Z,7.10
2022-12-08T05:42:24.454Z,6.87
2022-12-08T05:44:52.908Z,7.73
2022-12-08T05:47:21.006Z,6.03
2022-12-08T05:49:48.934Z,7.17
2022-12-08T05:52:18.381Z,8.50
2022-12-08T05:54:46.374Z,7.53
2022-12-08T05:57:14.287Z,7.83
2022-12-08T05:59:42.243Z,7.40
2022-12-08T06:02:10.345Z,7.23
2022-12-08T06:04:38.427Z,7.00
2022-12-08T06:07:06.405Z,7.40
2022-12-08T06:09:35.768Z,8.67
2022-12-08T06:12:04.016Z,7.30
2022-12-08T06:14:32.011Z,7.57
2022-12-08T06:17:00.104Z,8.17
2022-12-08T06:19:28.152Z,6.97
2022-12-08T06:21:56.147Z,7.90
2022-12-08T06:24:24.412Z,8.13
2022-12-08T06:26:53.820Z,8.67
2022-12-08T06:29:21.809Z,7.83
2022-12-08T06:31:53.892Z,7.90
2022-12-08T06:34:21.941Z,8.00
2022-12-08T06:36:49.863Z,8.17
2022-12-08T06:39:17.826Z,8.07
2022-12-08T06:42:03.422Z,9.33
2022-12-08T06:44:32.821Z,10.17
2022-12-08T06:47:00.779Z,8.70
2022-12-08T06:49:28.716Z,8.00
2022-12-08T06:51:56.909Z,8.60
2022-12-08T06:54:24.928Z,9.40
2022-12-08T06:56:52.880Z,8.83
2022-12-08T06:59:20.989Z,9.37
2022-12-08T07:01:50.525Z,8.80
2022-12-08T07:04:18.635Z,9.87
2022-12-08T07:06:46.676Z,8.73
2022-12-08T07:09:14.717Z,9.17
2022-12-08T07:11:42.949Z,9.20
2022-12-08T07:14:11.436Z,9.20
2022-12-08T07:16:40.574Z,9.87
2022-12-08T07:19:10.149Z,8.93
2022-12-08T07:21:38.313Z,8.30
2022-12-08T07:24:06.808Z,8.70
2022-12-08T07:26:34.914Z,8.10
2022-12-08T07:29:03.013Z,7.97
2022-12-08T07:31:31.296Z,8.17
2022-12-08T07:33:59.465Z,9.83
2022-12-08T07:36:29.083Z,9.87
2022-12-08T07:38:57.211Z,8.53
2022-12-08T07:41:26.074Z,10.03
2022-12-08T07:43:54.960Z,7.87
2022-12-08T07:46:24.278Z,8.13
2022-12-08T07:48:53.204Z,9.70
2022-12-08T07:51:21.446Z,8.43
2022-12-08T07:53:54.685Z,9.03
2022-12-08T07:56:23.091Z,8.27
2022-12-08T07:58:51.186Z,8.40
2022-12-08T08:01:26.287Z,8.63
2022-12-08T08:03:54.869Z,9.90
2022-12-08T08:06:22.881Z,8.13
2022-12-08T08:08:52.236Z,9.70
2022-12-08T08:11:21.625Z,8.57
2022-12-08T08:13:50.159Z,7.70
2022-12-08T08:16:19.580Z,9.53
2022-12-08T08:18:48.855Z,8.47
2022-12-08T08:24:08.081Z,9.23
2022-12-08T08:26:36.502Z,8.80
2022-12-08T08:29:05.323Z,9.67
2022-12-08T08:31:33.867Z,8.40
2022-12-08T08:34:06.678Z,9.30
2022-12-08T08:36:35.205Z,9.30
2022-12-08T08:39:03.227Z,9.17
2022-12-08T08:41:32.803Z,9.60
2022-12-08T08:44:00.974Z,9.70
2022-12-08T08:46:29.123Z,10.07
2022-12-08T08:48:57.392Z,9.80
2022-12-08T08:51:25.772Z,9.80
2022-12-08T08:53:53.793Z,9.60
2022-12-08T08:56:22.094Z,9.33
2022-12-08T08:58:52.991Z,9.07
2022-12-08T09:01:22.196Z,10.33
2022-12-08T09:03:50.474Z,10.90
2022-12-08T09:06:19.007Z,9.40
2022-12-08T09:08:47.634Z,10.67
2022-12-08T09:11:16.239Z,10.77
2022-12-08T09:13:44.313Z,9.33
2022-12-08T09:16:13.937Z,10.83
2022-12-08T09:18:42.110Z,9.70
2022-12-08T09:21:11.847Z,9.83
2022-12-08T09:23:40.089Z,10.47
2022-12-08T09:26:08.406Z,9.20
2022-12-08T09:28:36.666Z,9.50
2022-12-08T09:31:05.108Z,8.13
2022-12-08T09:33:34.743Z,10.13
2022-12-08T09:36:03.683Z,8.97
2022-12-08T09:38:31.923Z,9.70
2022-12-08T09:41:00.438Z,10.83
2022-12-08T09:43:41.054Z,9.93
2022-12-08T09:46:10.675Z,9.37
2022-12-08T09:48:41.441Z,11.03
2022-12-08T09:51:10.044Z,9.70
2022-12-08T09:53:40.727Z,9.43
2022-12-08T09:56:12.528Z,10.17
2022-12-08T09:58:47.765Z,10.07
2022-12-08T10:01:15.897Z,11.03
2022-12-08T10:03:45.373Z,10.37
2022-12-08T10:06:17.222Z,10.80
2022-12-08T10:08:47.979Z,9.83
2022-12-08T10:11:17.820Z,9.87
2022-12-08T10:13:51.014Z,10.87
2022-12-08T10:16:29.495Z,9.63
2022-12-08T10:19:03.058Z,10.10
2022-12-08T10:21:32.655Z,10.37
2022-12-08T10:24:05.698Z,10.33
2022-12-08T10:26:33.840Z,11.67
2022-12-08T10:29:03.173Z,10.50
2022-12-08T10:31:32.139Z,11.10
2022-12-08T10:34:02.967Z,10.27
2022-12-08T10:36:46.884Z,10.70
2022-12-08T10:39:33.482Z,11.30
2022-12-08T10:42:08.346Z,11.07
2022-12-08T10:44:39.487Z,8.97
2022-12-08T10:47:13.150Z,10.03
2022-12-08T10:49:42.718Z,11.37
2022-12-08T10:52:23.118Z,11.33
2022-12-08T10:54:53.850Z,11.43
2022-12-08T10:57:22.883Z,10.70
2022-12-08T10:59:51.008Z,11.03
2022-12-08T11:02:20.333Z,11.47
2022-12-08T11:04:59.227Z,10.43
2022-12-08T11:07:27.911Z,11.97
2022-12-08T11:09:58.420Z,9.53
2022-12-08T11:12:29.266Z,11.50
2022-12-08T11:14:59.349Z,12.03
2022-12-08T11:17:28.532Z,10.47
2022-12-08T11:19:58.676Z,11.60
2022-12-08T11:22:27.493Z,10.10
2022-12-08T11:24:58.765Z,10.27
2022-12-08T11:27:26.825Z,10.37
2022-12-08T11:29:54.943Z,10.37
2022-12-08T11:32:23.439Z,10.63
2022-12-08T11:34:53.270Z,10.27
2022-12-08T11:37:27.495Z,9.60
2022-12-08T11:39:59.646Z,10.40
2022-12-08T11:42:32.292Z,10.00
2022-12-08T11:45:01.293Z,10.60
2022-12-08T11:47:31.225Z,10.27
2022-12-08T11:50:03.906Z,11.73
2022-12-08T11:52:35.250Z,11.30
2022-12-08T11:55:07.120Z,10.57
2022-12-08T11:57:35.157Z,11.23
2022-12-08T12:00:04.065Z,10.77
2022-12-08T12:02:33.338Z,10.70
2022-12-08T12:05:04.744Z,11.50
2022-12-08T12:07:50.017Z,10.10
2022-12-08T12:10:32.903Z,10.20
2022-12-08T12:13:06.886Z,10.47
2022-12-08T12:15:58.188Z,11.23
2022-12-08T12:18:27.637Z,11.00
2022-12-08T12:20:58.635Z,11.73
2022-12-08T12:23:33.613Z,10.33
2022-12-08T12:26:06.933Z,10.90
2022-12-08T12:28:41.469Z,11.23
2022-12-08T12:31:11.398Z,11.93
2022-12-08T12:33:39.792Z,12.00
2022-12-08T12:36:09.176Z,11.67
2022-12-08T12:38:57.081Z,11.60
2022-12-08T12:41:26.499Z,10.60
2022-12-08T12:44:13.270Z,13.53
2022-12-08T12:46:55.000Z,12.63
2022-12-08T12:49:52.816Z,11.37
2022-12-08T12:52:54.101Z,11.37
2022-12-08T12:55:25.558Z,10.73
2022-12-08T12:57:54.922Z,11.70
2022-12-08T13:00:23.810Z,10.13
2022-12-08T13:02:52.796Z,12.07
2022-12-08T13:05:22.490Z,11.93
2022-12-08T13:07:52.553Z,12.07
2022-12-08T13:10:22.822Z,11.13
2022-12-08T13:13:05.284Z,12.93
2022-12-08T13:15:36.622Z,11.90
2022-12-08T13:18:04.964Z,13.27
2022-12-08T13:20:41.724Z,12.97
2022-12-08T13:23:15.091Z,10.97
2022-12-08T13:26:00.896Z,12.30
2022-12-08T13:28:31.700Z,12.30
2022-12-08T13:31:00.666Z,12.77
2022-12-08T13:33:30.953Z,12.80
2022-12-08T13:36:04.924Z,13.20
2022-12-08T13:38:35.649Z,12.73
2022-12-08T13:41:07.696Z,13.03
2022-12-08T13:43:55.499Z,12.90
2022-12-08T13:56:24.861Z,12.10
2022-12-08T13:57:56.371Z,13.13
2022-12-08T14:00:27.606Z,12.83
2022-12-08T14:02:58.485Z,13.33
2022-12-08T14:05:55.111Z,13.10
2022-12-08T14:08:36.331Z,12.77
2022-12-08T14:11:09.283Z,14.30
2022-12-08T14:13:37.382Z,13.77
2022-12-08T14:16:07.748Z,14.63
2022-12-08T14:18:35.892Z,13.33
2022-12-08T14:21:21.690Z,13.87
2022-12-08T14:23:50.126Z,13.43
2022-12-08T14:26:18.292Z,13.57
2022-12-08T14:28:46.422Z,12.43
2022-12-08T14:31:16.258Z,13.23
2022-12-08T14:33:44.452Z,14.40
2022-12-08T14:36:14.813Z,12.60
2022-12-08T14:38:42.915Z,13.63
2022-12-08T14:41:12.303Z,13.63
2022-12-08T14:43:41.150Z,13.30
2022-12-08T14:46:21.510Z,13.57
2022-12-08T14:48:49.806Z,13.50
2022-12-08T14:51:22.053Z,13.10
2022-12-08T14:53:54.552Z,13.83
2022-12-08T14:56:24.074Z,13.43
2022-12-08T14:58:52.944Z,14.40
2022-12-08T15:01:24.586Z,13.07
2022-12-08T15:03:52.607Z,13.87
2022-12-08T15:06:22.411Z,14.07
2022-12-08T15:08:54.641Z,14.23
2022-12-08T15:11:33.261Z,13.23
2022-12-08T15:14:01.962Z,13.60
2022-12-08T15:16:33.297Z,12.83
2022-12-08T15:19:03.347Z,14.03
2022-12-08T15:21:32.639Z,13.90
2022-12-08T15:24:00.631Z,13.13
2022-12-08T15:26:29.205Z,12.87
2022-12-08T15:28:57.229Z,14.93
2022-12-08T15:31:25.235Z,13.60
2022-12-08T15:33:54.770Z,12.93
2022-12-08T15:36:22.732Z,14.43
2022-12-08T15:38:50.720Z,12.70
2022-12-08T15:41:18.644Z,12.73
2022-12-08T15:43:46.665Z,12.40
2022-12-08T15:46:14.711Z,11.87
2022-12-08T15:48:42.789Z,14.43
2022-12-08T15:51:12.219Z,12.43
2022-12-08T15:53:40.235Z,14.43
2022-12-08T15:58:58.207Z,13.23
2022-12-08T16:01:26.809Z,13.33
2022-12-08T16:04:47.781Z,13.60
2022-12-08T16:09:34.609Z,12.23
2022-12-08T16:12:20.178Z,13.57
2022-12-08T16:17:36.844Z,13.87
2022-12-08T16:20:05.829Z,13.30
2022-12-08T16:25:24.221Z,12.67
2022-12-08T16:28:37.032Z,15.00
2022-12-08T16:30:41.578Z,14.70
2022-12-08T16:33:09.659Z,14.77
2022-12-08T16:35:37.577Z,13.53
2022-12-08T16:38:07.007Z,13.47
2022-12-08T16:40:55.884Z,14.07
2022-12-08T16:43:22.802Z,14.33
2022-12-08T16:45:50.775Z,14.17
2022-12-08T16:48:18.743Z,13.73
2022-12-08T16:50:46.905Z,15.33
2022-12-08T16:53:16.301Z,14.77
2022-12-08T16:55:47.262Z,13.37
2022-12-08T16:58:15.259Z,14.77
2022-12-08T17:00:43.243Z,13.77
2022-12-08T17:03:12.789Z,14.37
2022-12-08T17:05:41.234Z,14.70
2022-12-08T17:08:09.303Z,14.43
2022-12-08T17:10:39.736Z,15.77
2022-12-08T17:13:07.715Z,15.20
2022-12-08T17:15:35.717Z,14.70
2022-12-08T17:18:04.187Z,14.67
2022-12-08T17:20:34.159Z,13.57
2022-12-08T17:23:02.105Z,14.30
2022-12-08T17:25:30.108Z,14.83
2022-12-08T17:27:59.516Z,14.07
2022-12-08T17:30:27.511Z,14.20
2022-12-08T17:32:55.533Z,13.30
2022-12-08T17:35:23.458Z,14.20
2022-12-08T17:37:51.413Z,14.20
2022-12-08T17:40:19.418Z,14.07
2022-12-08T17:42:47.456Z,13.77
2022-12-08T17:45:16.830Z,13.93
2022-12-08T17:47:44.818Z,14.30
2022-12-08T17:50:37.375Z,14.43
2022-12-08T17:53:05.344Z,13.70
2022-12-08T17:55:33.337Z,15.40
2022-12-08T17:58:01.582Z,14.63
2022-12-08T18:00:31.239Z,15.20
2022-12-08T18:02:59.520Z,15.60
2022-12-08T18:05:27.459Z,14.00
2022-12-08T18:07:55.476Z,14.53
2022-12-08T18:10:23.523Z,14.03
2022-12-08T18:12:51.452Z,14.57
2022-12-08T18:15:20.472Z,13.50
2022-12-08T18:17:49.839Z,15.03
2022-12-08T18:20:17.882Z,13.53
2022-12-08T18:22:45.898Z,14.93
2022-12-08T18:25:14.230Z,14.37
2022-12-08T18:27:43.361Z,14.50
2022-12-08T18:30:13.357Z,14.13
2022-12-08T18:32:41.319Z,14.03
2022-12-08T18:35:11.801Z,14.37
2022-12-08T18:37:39.795Z,13.83
2022-12-08T18:40:08.321Z,14.63
2022-12-08T18:42:36.501Z,14.27
2022-12-08T18:45:06.686Z,15.13
2022-12-08T18:47:35.279Z,13.67
2022-12-08T18:50:03.493Z,13.90
2022-12-08T18:52:33.216Z,13.13
2022-12-08T18:55:08.594Z,13.33
2022-12-08T18:57:38.060Z,14.93
2022-12-08T19:00:06.472Z,14.93
2022-12-08T19:02:35.304Z,13.33
2022-12-08T19:05:03.328Z,12.80
2022-12-08T19:07:32.672Z,14.13
2022-12-08T19:10:00.925Z,13.93
2022-12-08T19:12:28.849Z,12.83
2022-12-08T19:14:56.850Z,13.20
2022-12-08T19:17:26.046Z,12.97
2022-12-08T19:19:54.152Z,13.83
2022-12-08T19:22:22.139Z,13.30
2022-12-08T19:24:51.516Z,13.67
2022-12-08T19:27:19.795Z,15.00
2022-12-08T19:29:47.740Z,13.90
2022-12-08T19:32:15.785Z,13.43
2022-12-08T19:34:43.755Z,13.40
2022-12-08T19:37:12.832Z,13.47
2022-12-08T19:39:58.958Z,14.30
2022-12-08T19:42:45.551Z,14.90
2022-12-08T19:45:14.330Z,13.20
2022-12-08T19:47:42.799Z,14.47
2022-12-08T19:50:29.675Z,15.40
2022-12-08T19:52:57.657Z,14.87
2022-12-08T19:55:25.990Z,13.27
2022-12-08T19:57:56.877Z,12.80
2022-12-08T20:00:24.928Z,14.93
2022-12-08T20:02:53.146Z,14.27
2022-12-08T20:05:21.317Z,14.57
2022-12-08T20:07:49.552Z,14.17
2022-12-08T20:10:18.500Z,15.17
2022-12-08T20:12:46.507Z,15.30
2022-12-08T20:15:16.064Z,15.67
2022-12-08T20:17:44.040Z,14.73
2022-12-08T20:20:13.649Z,15.03
2022-12-08T20:22:42.008Z,15.30
2022-12-08T20:25:12.973Z,14.13
2022-12-08T20:27:41.385Z,15.33
2022-12-08T20:30:16.492Z,14.20
2022-12-08T20:32:46.784Z,14.63
2022-12-08T20:35:15.606Z,15.60
2022-12-08T20:37:43.766Z,16.00
2022-12-08T20:40:11.969Z,14.27
2022-12-08T20:42:39.992Z,15.70
2022-12-08T20:45:09.830Z,14.50
2022-12-08T20:47:38.016Z,16.77
2022-12-08T20:50:08.728Z,16.03
2022-12-08T20:52:38.060Z,15.30
2022-12-08T20:55:06.721Z,14.83
2022-12-08T20:57:34.731Z,17.23
2022-12-08T21:00:03.110Z,16.33
2022-12-08T21:02:31.413Z,16.00
2022-12-08T21:04:59.637Z,14.93
2022-12-08T21:07:29.191Z,15.00
2022-12-08T21:09:57.249Z,16.13
2022-12-08T21:12:25.340Z,15.30
2022-12-08T21:14:53.412Z,14.70
2022-12-08T21:17:21.532Z,15.70
2022-12-08T21:19:49.642Z,15.40
2022-12-08T21:22:17.805Z,15.43
2022-12-08T21:24:47.274Z,15.93
2022-12-08T21:27:15.272Z,16.23
2022-12-08T21:29:43.414Z,14.97
2022-12-08T21:32:11.614Z,16.60
2022-12-08T21:34:39.744Z,16.60
2022-12-08T21:37:07.787Z,17.57
2022-12-08T21:39:35.907Z,16.13
2022-12-08T21:42:23.385Z,16.70
2022-12-08T21:44:52.526Z,15.43
2022-12-08T21:47:20.665Z,15.10
2022-12-08T21:49:48.673Z,16.97
2022-12-08T21:52:16.597Z,17.60
2022-12-08T21:54:44.906Z,16.07
2022-12-08T21:57:14.367Z,15.77
2022-12-08T21:59:42.526Z,17.17
2022-12-08T22:02:14.687Z,16.67
2022-12-08T22:04:47.938Z,15.97
2022-12-08T22:07:16.046Z,15.27
2022-12-08T22:09:44.209Z,17.27
2022-12-08T22:12:13.163Z,17.27
2022-12-08T22:14:42.598Z,15.57
2022-12-08T22:17:10.777Z,16.73
2022-12-08T22:19:39.419Z,17.53
2022-12-08T22:22:07.558Z,14.20
2022-12-08T22:24:35.557Z,15.73
2022-12-08T22:27:03.961Z,15.70
2022-12-08T22:29:31.995Z,16.63
2022-12-08T22:32:01.553Z,15.63
2022-12-08T22:34:29.601Z,17.07
2022-12-08T22:36:57.726Z,16.13
2022-12-08T22:39:25.938Z,15.47
2022-12-08T22:41:53.927Z,16.47
2022-12-08T22:44:21.912Z,17.23
2022-12-08T22:46:49.913Z,16.87
2022-12-08T22:49:19.348Z,16.23
2022-12-08T22:51:47.372Z,15.97
2022-12-08T22:54:15.407Z,16.77
2022-12-08T22:56:43.333Z,15.70
2022-12-08T22:59:11.301Z,15.90
2022-12-08T23:01:39.534Z,15.43
2022-12-08T23:04:11.337Z,16.63
2022-12-08T23:06:43.904Z,17.03
2022-12-08T23:09:12.063Z,16.77
2022-12-08T23:11:40.214Z,16.30
2022-12-08T23:14:08.256Z,16.10
2022-12-08T23:16:36.984Z,16.77
2022-12-08T23:19:05.202Z,15.47
2022-12-08T23:21:33.434Z,15.60
2022-12-08T23:24:03.087Z,16.57
2022-12-08T23:26:32.116Z,16.67
2022-12-08T23:29:00.438Z,16.23
2022-12-08T23:31:28.589Z,14.83
2022-12-08T23:33:56.927Z,14.67
2022-12-08T23:36:27.287Z,15.60
2022-12-08T23:38:55.867Z,16.27
2022-12-08T23:41:25.387Z,17.33
2022-12-08T23:43:53.667Z,16.07
2022-12-08T23:46:22.445Z,15.50
2022-12-08T23:48:50.768Z,17.27
2022-12-08T23:51:19.061Z,16.10
2022-12-08T23:53:47.480Z,16.70
2022-12-08T23:56:16.816Z,14.90
2022-12-08T23:58:46.589Z,14.93
